Time;durP1;ratioP1;P1;durP2;ratioP2;P2;SDS_P1;SDS_P2;PMS_P1;PMS_P2;Temp;Humidity;BMP_temperature;BMP_pressure;BME280_temperature;BME280_humidity;BME280_pressure;Samples;Min_cycle;Max_cycle;Signal;HPM_P1;HPM_P2
2024/01/05 00:01:07;;;;;;;8.93;2.35;;;;;;;;;;4996710;28;20046;-47
2024/01/05 00:03:32;;;;;;;5.85;2.63;;;;;;;;;;4965876;28;20106;-51
2024/01/05 00:05:57;;;;;;;7.40;1.92;;;;;;;;;;4984876;28;20038;-47
2024/01/05 00:08:23;;;;;;;5.10;1.55;;;;;;;;;;4990576;28;20762;-49
2024/01/05 00:10:48;;;;;;;4.13;1.38;;;;;;;;;;4987967;28;20072;-50
2024/01/05 00:13:14;;;;;;;6.93;1.60;;;;;;;;;;4964972;28;20027;-50
2024/01/05 00:15:39;;;;;;;5.85;1.30;;;;;;;;;;4987762;28;20034;-49
2024/01/05 00:18:06;;;;;;;7.80;1.92;;;;;;;;;;4996179;28;20100;-48
2024/01/05 00:20:31;;;;;;;7.50;2.72;;;;;;;;;;4982872;28;20050;-51
2024/01/05 00:22:57;;;;;;;3.92;1.40;;;;;;;;;;4989003;28;20022;-50
2024/01/05 00:25:22;;;;;;;3.38;0.88;;;;;;;;;;4988809;28;20105;-50
2024/01/05 00:27:51;;;;;;;5.57;1.85;;;;;;;;;;4990919;28;20034;-50
2024/01/05 00:30:17;;;;;;;;;;;;;;;;;;4993695;28;20031;-49
2024/01/05 00:32:42;;;;;;;5.90;2.20;;;;;;;;;;4999532;28;19921;-51
2024/01/05 00:35:08;;;;;;;3.97;1.48;;;;;;;;;;4988484;28;20038;-48
2024/01/05 00:37:33;;;;;;;4.82;1.88;;;;;;;;;;4994548;28;20061;-50
2024/01/05 00:39:58;;;;;;;7.35;2.38;;;;;;;;;;4988312;28;20128;-52
2024/01/05 00:42:24;;;;;;;5.38;1.75;;;;;;;;;;4989939;28;20022;-51
2024/01/05 00:44:49;;;;;;;6.35;1.52;;;;;;;;;;4998201;28;20489;-49
2024/01/05 00:47:15;;;;;;;6.78;1.85;;;;;;;;;;4985760;28;20093;-50
2024/01/05 00:49:40;;;;;;;5.95;2.08;;;;;;;;;;4996907;28;20676;-50
2024/01/05 00:52:06;;;;;;;3.58;1.67;;;;;;;;;;4986775;28;20515;-50
2024/01/05 00:54:31;;;;;;;4.60;1.48;;;;;;;;;;4986711;28;20064;-52
2024/01/05 00:56:56;;;;;;;10.20;2.22;;;;;;;;;;4994023;28;20030;-52
2024/01/05 00:59:22;;;;;;;5.30;1.60;;;;;;;;;;4983678;28;20523;-50
2024/01/05 01:01:47;;;;;;;3.90;2.08;;;;;;;;;;4983516;28;20057;-52
2024/01/05 01:04:13;;;;;;;4.68;2.03;;;;;;;;;;4979509;28;20054;-49
2024/01/05 01:06:39;;;;;;;4.93;1.58;;;;;;;;;;4992799;28;20057;-48
2024/01/05 01:09:04;;;;;;;3.70;1.33;;;;;;;;;;4991924;28;20034;-50
2024/01/05 01:11:30;;;;;;;6.05;1.80;;;;;;;;;;4962579;28;20066;-49
2024/01/05 01:13:55;;;;;;;6.07;1.88;;;;;;;;;;4989754;28;20061;-51
2024/01/05 01:16:20;;;;;;;3.50;1.52;;;;;;;;;;4988187;28;20031;-52
2024/01/05 01:18:46;;;;;;;3.55;1.52;;;;;;;;;;4987409;28;20069;-51
2024/01/05 01:21:12;;;;;;;4.88;1.63;;;;;;;;;;4991627;28;20100;-52
2024/01/05 01:23:37;;;;;;;3.88;1.33;;;;;;;;;;4994886;28;20038;-50
2024/01/05 01:26:03;;;;;;;5.18;1.55;;;;;;;;;;4991760;28;20093;-49
2024/01/05 01:28:28;;;;;;;7.65;2.00;;;;;;;;;;4987087;28;20049;-48
2024/01/05 01:30:53;;;;;;;8.07;1.73;;;;;;;;;;4990049;28;20034;-52
2024/01/05 01:33:19;;;;;;;5.55;1.42;;;;;;;;;;4982236;28;20049;-48
2024/01/05 01:35:44;;;;;;;6.78;1.85;;;;;;;;;;4985868;28;20560;-49
2024/01/05 01:38:10;;;;;;;7.30;1.98;;;;;;;;;;4981772;28;20042;-50
2024/01/05 01:40:35;;;;;;;4.97;1.70;;;;;;;;;;4977190;28;20091;-50
2024/01/05 01:43:01;;;;;;;4.90;1.30;;;;;;;;;;4987281;28;20029;-53
2024/01/05 01:45:26;;;;;;;5.18;1.30;;;;;;;;;;4990108;28;20045;-49
2024/01/05 01:47:52;;;;;;;8.18;2.40;;;;;;;;;;4981646;28;20289;-51
2024/01/05 01:50:18;;;;;;;4.72;1.33;;;;;;;;;;4993314;28;20038;-47
2024/01/05 01:52:47;;;;;;;3.22;1.10;;;;;;;;;;4984673;28;20062;-51
2024/01/05 01:55:14;;;;;;;3.67;0.98;;;;;;;;;;4984054;28;20034;-47
2024/01/05 01:57:40;;;;;;;4.70;1.00;;;;;;;;;;4989358;28;20021;-52
2024/01/05 02:00:07;;;;;;;7.13;1.63;;;;;;;;;;4982115;28;20069;-48
2024/01/05 02:02:34;;;;;;;3.55;1.33;;;;;;;;;;4985827;28;20233;-49
2024/01/05 02:04:59;;;;;;;5.18;2.33;;;;;;;;;;4991051;28;20464;-47
2024/01/05 02:07:25;;;;;;;4.10;1.65;;;;;;;;;;4994144;28;20026;-50
2024/01/05 02:09:51;;;;;;;6.07;1.35;;;;;;;;;;4989945;28;20042;-49
2024/01/05 02:12:16;;;;;;;3.95;1.27;;;;;;;;;;4994038;28;20080;-48
2024/01/05 02:14:42;;;;;;;6.03;1.70;;;;;;;;;;4984319;28;20078;-50
2024/01/05 02:17:27;;;;;;;3.60;1.80;;;;;;;;;;5005161;28;20046;-52
2024/01/05 02:19:52;;;;;;;5.80;1.05;;;;;;;;;;4992307;28;20579;-48
2024/01/05 02:22:20;;;;;;;4.30;0.95;;;;;;;;;;4985231;28;20034;-51
2024/01/05 02:24:45;;;;;;;4.55;1.48;;;;;;;;;;4983417;28;20043;-51
2024/01/05 02:27:11;;;;;;;4.13;1.95;;;;;;;;;;4989227;28;20018;-53
2024/01/05 02:29:36;;;;;;;4.00;0.90;;;;;;;;;;4986655;28;20062;-50
2024/01/05 02:32:02;;;;;;;5.00;1.27;;;;;;;;;;4993357;28;20029;-50
2024/01/05 02:34:27;;;;;;;4.53;0.93;;;;;;;;;;4987707;28;20034;-49
2024/01/05 02:36:52;;;;;;;3.80;1.98;;;;;;;;;;4975382;28;20040;-48
2024/01/05 02:39:18;;;;;;;4.57;1.27;;;;;;;;;;4992966;28;20046;-51
2024/01/05 02:41:43;;;;;;;2.53;0.90;;;;;;;;;;4991230;28;20033;-49
2024/01/05 02:44:09;;;;;;;4.13;1.33;;;;;;;;;;4989354;28;20046;-51
2024/01/05 02:46:35;;;;;;;4.78;1.73;;;;;;;;;;4990926;28;20031;-51
2024/01/05 02:49:00;;;;;;;2.40;0.82;;;;;;;;;;4998311;28;20049;-50
2024/01/05 02:51:26;;;;;;;5.63;3.28;;;;;;;;;;4995051;28;20385;-52
2024/01/05 02:53:52;;;;;;;3.75;1.35;;;;;;;;;;4992507;28;20074;-48
2024/01/05 02:56:23;;;;;;;4.97;1.00;;;;;;;;;;4989672;28;20046;-52
2024/01/05 02:58:52;;;;;;;3.40;1.67;;;;;;;;;;4994922;28;20034;-48
2024/01/05 03:01:18;;;;;;;5.88;1.48;;;;;;;;;;4991542;28;20058;-50
2024/01/05 03:03:48;;;;;;;5.28;1.30;;;;;;;;;;4984883;28;20046;-49
2024/01/05 03:06:17;;;;;;;2.88;1.00;;;;;;;;;;4998206;28;20022;-49
2024/01/05 03:08:43;;;;;;;2.22;0.85;;;;;;;;;;4991185;28;20053;-50
2024/01/05 03:11:09;;;;;;;2.80;0.88;;;;;;;;;;4988211;28;20090;-51
2024/01/05 03:13:34;;;;;;;4.50;1.10;;;;;;;;;;4994896;28;20461;-50
2024/01/05 03:16:00;;;;;;;3.90;0.98;;;;;;;;;;4998901;28;20556;-48
2024/01/05 03:18:26;;;;;;;1.92;0.52;;;;;;;;;;4992884;28;20446;-47
2024/01/05 03:20:51;;;;;;;2.72;0.88;;;;;;;;;;4978574;28;20041;-50
2024/01/05 03:23:17;;;;;;;3.20;0.70;;;;;;;;;;4997245;28;20088;-53
2024/01/05 03:25:43;;;;;;;3.67;0.73;;;;;;;;;;4988274;28;20030;-51
2024/01/05 03:28:10;;;;;;;3.75;0.85;;;;;;;;;;4993253;28;20022;-49
2024/01/05 03:30:39;;;;;;;2.83;1.15;;;;;;;;;;4982085;28;20489;-49
2024/01/05 03:33:05;;;;;;;3.00;1.00;;;;;;;;;;4991325;28;20085;-52
2024/01/05 03:35:30;;;;;;;6.88;1.05;;;;;;;;;;4976498;28;20519;-49
2024/01/05 03:37:56;;;;;;;3.83;0.93;;;;;;;;;;4993966;28;20033;-49
2024/01/05 03:40:22;;;;;;;2.25;0.90;;;;;;;;;;4999552;28;20042;-48
2024/01/05 03:42:48;;;;;;;2.80;1.58;;;;;;;;;;4995849;28;20032;-47
2024/01/05 03:45:13;;;;;;;3.13;0.90;;;;;;;;;;4987950;28;20465;-48
2024/01/05 03:47:39;;;;;;;3.50;1.45;;;;;;;;;;4999375;28;20376;-47
2024/01/05 03:50:05;;;;;;;1.42;0.60;;;;;;;;;;4997139;28;20046;-50
2024/01/05 03:52:30;;;;;;;5.95;1.35;;;;;;;;;;4986700;28;20046;-52
2024/01/05 03:54:56;;;;;;;2.10;0.50;;;;;;;;;;4987554;28;20049;-52
2024/01/05 03:57:22;;;;;;;4.35;0.95;;;;;;;;;;4985710;28;20086;-52
2024/01/05 03:59:47;;;;;;;3.63;0.70;;;;;;;;;;4976516;28;20055;-48
2024/01/05 04:02:12;;;;;;;3.67;1.00;;;;;;;;;;4996142;28;20034;-49
2024/01/05 04:04:39;;;;;;;4.00;1.13;;;;;;;;;;4986711;28;20046;-49
2024/01/05 04:07:05;;;;;;;4.10;1.20;;;;;;;;;;4984462;28;20026;-49
2024/01/05 04:09:31;;;;;;;4.57;0.95;;;;;;;;;;4983372;28;20085;-51
2024/01/05 04:11:57;;;;;;;3.03;0.80;;;;;;;;;;4991071;28;20057;-49
2024/01/05 04:14:23;;;;;;;4.85;1.60;;;;;;;;;;4989877;28;20579;-48
2024/01/05 04:16:48;;;;;;;3.10;0.80;;;;;;;;;;4987255;28;20038;-52
2024/01/05 04:19:14;;;;;;;4.75;1.10;;;;;;;;;;4988184;28;20173;-51
2024/01/05 04:21:39;;;;;;;2.60;0.93;;;;;;;;;;5007412;28;20027;-52
2024/01/05 04:24:04;;;;;;;5.07;0.98;;;;;;;;;;4982356;28;20214;-47
2024/01/05 04:26:30;;;;;;;4.35;1.50;;;;;;;;;;4995165;28;20567;-50
2024/01/05 04:28:55;;;;;;;4.15;1.58;;;;;;;;;;4986551;28;20095;-49
2024/01/05 04:31:21;;;;;;;2.35;0.63;;;;;;;;;;5000094;28;20120;-50
2024/01/05 04:33:46;;;;;;;4.55;1.83;;;;;;;;;;4991406;28;20101;-49
2024/01/05 04:36:15;;;;;;;3.75;1.23;;;;;;;;;;4990675;28;20554;-51
2024/01/05 04:38:41;;;;;;;2.35;0.80;;;;;;;;;;4985455;28;20046;-49
2024/01/05 04:41:06;;;;;;;7.70;1.85;;;;;;;;;;4989278;28;20023;-52
2024/01/05 04:43:32;;;;;;;5.85;4.15;;;;;;;;;;4991247;28;20397;-50
2024/01/05 04:45:57;;;;;;;4.97;1.23;;;;;;;;;;4972799;28;20038;-49
2024/01/05 04:48:23;;;;;;;5.65;2.30;;;;;;;;;;4980026;28;20401;-48
2024/01/05 04:50:48;;;;;;;4.85;1.23;;;;;;;;;;4982262;28;20488;-47
2024/01/05 04:53:14;;;;;;;2.25;0.73;;;;;;;;;;4977539;28;20022;-50
2024/01/05 04:55:39;;;;;;;4.68;1.20;;;;;;;;;;4993711;28;20034;-49
2024/01/05 04:58:04;;;;;;;3.70;1.08;;;;;;;;;;4969581;28;20034;-51
2024/01/05 05:00:30;;;;;;;3.75;1.55;;;;;;;;;;4989836;28;20061;-51
2024/01/05 05:02:55;;;;;;;5.10;1.65;;;;;;;;;;4989088;28;20044;-50
2024/01/05 05:05:22;;;;;;;2.35;1.42;;;;;;;;;;4977965;28;20085;-51
2024/01/05 05:07:47;;;;;;;2.72;0.95;;;;;;;;;;4981774;28;20069;-46
2024/01/05 05:10:14;;;;;;;2.88;0.95;;;;;;;;;;4964551;28;20026;-50
2024/01/05 05:12:39;;;;;;;5.50;1.35;;;;;;;;;;4989801;28;20034;-50
2024/01/05 05:15:05;;;;;;;1.63;0.80;;;;;;;;;;4984560;28;20047;-53
2024/01/05 05:17:30;;;;;;;3.60;0.90;;;;;;;;;;4992394;28;20037;-51
2024/01/05 05:19:56;;;;;;;2.35;0.88;;;;;;;;;;4993987;28;20038;-47
2024/01/05 05:22:22;;;;;;;4.85;1.35;;;;;;;;;;4990542;28;20026;-47
2024/01/05 05:24:50;;;;;;;4.45;1.17;;;;;;;;;;4985005;28;20031;-46
2024/01/05 05:27:16;;;;;;;4.05;0.80;;;;;;;;;;4996235;28;20030;-50
2024/01/05 05:29:41;;;;;;;2.83;1.02;;;;;;;;;;4970938;28;20125;-48
2024/01/05 05:32:07;;;;;;;4.55;0.70;;;;;;;;;;5000832;28;20023;-51
2024/01/05 05:34:32;;;;;;;4.97;1.25;;;;;;;;;;4968581;28;20129;-50
2024/01/05 05:36:57;;;;;;;5.00;0.88;;;;;;;;;;4989797;28;20504;-48
2024/01/05 05:39:24;;;;;;;3.35;1.25;;;;;;;;;;4989635;28;20056;-48
2024/01/05 05:41:49;;;;;;;2.72;0.95;;;;;;;;;;4993756;28;20078;-49
2024/01/05 05:44:15;;;;;;;2.60;0.70;;;;;;;;;;4980143;28;20042;-49
2024/01/05 05:46:40;;;;;;;3.22;1.55;;;;;;;;;;4983533;28;20027;-52
2024/01/05 05:49:06;;;;;;;1.83;0.45;;;;;;;;;;4989355;28;20061;-50
2024/01/05 05:51:32;;;;;;;2.55;0.63;;;;;;;;;;4985307;28;20046;-51
2024/01/05 05:53:58;;;;;;;2.78;0.85;;;;;;;;;;4989377;28;20050;-51
2024/01/05 05:56:23;;;;;;;4.82;1.05;;;;;;;;;;4982689;28;20030;-50
2024/01/05 05:58:49;;;;;;;3.28;1.17;;;;;;;;;;4987904;28;20046;-49
2024/01/05 06:01:16;;;;;;;3.75;1.35;;;;;;;;;;4971421;28;20058;-49
2024/01/05 06:03:42;;;;;;;4.30;1.77;;;;;;;;;;4989024;28;20045;-46
2024/01/05 06:06:18;;;;;;;8.02;2.58;;;;;;;;;;4980832;28;20026;-48
2024/01/05 06:08:44;;;;;;;2.05;0.88;;;;;;;;;;4988776;28;20061;-50
2024/01/05 06:11:09;;;;;;;1.52;1.00;;;;;;;;;;4993478;28;20029;-48
2024/01/05 06:13:35;;;;;;;1.58;1.00;;;;;;;;;;4989181;28;20464;-49
2024/01/05 06:16:00;;;;;;;3.10;0.85;;;;;;;;;;4991396;28;20025;-51
2024/01/05 06:18:26;;;;;;;3.40;1.20;;;;;;;;;;4991440;28;20042;-50
2024/01/05 06:20:51;;;;;;;5.35;1.00;;;;;;;;;;4988888;28;20049;-50
2024/01/05 06:23:16;;;;;;;4.47;2.13;;;;;;;;;;4992041;28;20105;-48
2024/01/05 06:25:42;;;;;;;8.10;3.15;;;;;;;;;;4984348;28;20026;-50
2024/01/05 06:28:07;;;;;;;6.47;2.05;;;;;;;;;;4968076;28;20037;-49
2024/01/05 06:30:33;;;;;;;6.55;1.77;;;;;;;;;;4976707;28;20033;-50
2024/01/05 06:32:58;;;;;;;6.00;1.35;;;;;;;;;;4989903;28;20038;-47
2024/01/05 06:35:24;;;;;;;3.53;1.50;;;;;;;;;;4993836;28;20097;-48
2024/01/05 06:37:49;;;;;;;5.28;1.27;;;;;;;;;;4990808;28;20049;-50
2024/01/05 06:40:15;;;;;;;4.65;1.45;;;;;;;;;;4974494;28;20045;-46
2024/01/05 06:42:41;;;;;;;3.85;1.77;;;;;;;;;;4976488;28;20085;-48
2024/01/05 06:45:07;;;;;;;2.08;1.30;;;;;;;;;;4989539;28;20539;-51
2024/01/05 06:47:32;;;;;;;2.88;1.02;;;;;;;;;;4987486;28;20109;-51
2024/01/05 06:49:58;;;;;;;4.05;1.38;;;;;;;;;;4978384;28;20112;-49
2024/01/05 06:52:23;;;;;;;5.20;1.35;;;;;;;;;;4986257;28;20055;-50
2024/01/05 06:54:48;;;;;;;6.93;1.70;;;;;;;;;;4982025;28;20046;-51
2024/01/05 06:57:14;;;;;;;5.20;1.10;;;;;;;;;;4985475;28;20031;-49
2024/01/05 06:59:39;;;;;;;4.15;1.10;;;;;;;;;;4971790;28;20067;-52
2024/01/05 07:02:05;;;;;;;4.57;1.20;;;;;;;;;;4989841;28;20041;-50
2024/01/05 07:04:30;;;;;;;4.20;0.80;;;;;;;;;;4985819;28;20035;-52
2024/01/05 07:06:56;;;;;;;3.17;1.60;;;;;;;;;;4987864;28;20038;-48
2024/01/05 07:09:22;;;;;;;5.22;1.65;;;;;;;;;;4989332;28;20058;-53
2024/01/05 07:11:47;;;;;;;3.22;1.52;;;;;;;;;;4985596;28;20093;-51
2024/01/05 07:14:13;;;;;;;3.20;1.55;;;;;;;;;;4963959;28;20031;-49
2024/01/05 07:16:38;;;;;;;3.40;1.25;;;;;;;;;;4980870;28;20046;-50
2024/01/05 07:19:03;;;;;;;3.55;0.93;;;;;;;;;;4987184;28;20031;-50
2024/01/05 07:21:29;;;;;;;2.03;1.10;;;;;;;;;;4972155;28;20114;-52
2024/01/05 07:23:54;;;;;;;3.90;2.10;;;;;;;;;;4991350;28;20034;-50
2024/01/05 07:26:21;;;;;;;1.80;1.33;;;;;;;;;;4992296;28;20035;-49
2024/01/05 07:28:46;;;;;;;2.53;0.65;;;;;;;;;;4983709;28;20035;-49
2024/01/05 07:31:12;;;;;;;2.22;0.90;;;;;;;;;;4996396;28;20030;-50
2024/01/05 07:33:39;;;;;;;2.38;1.25;;;;;;;;;;4991406;28;20088;-47
2024/01/05 07:36:04;;;;;;;3.15;1.00;;;;;;;;;;4989877;28;20816;-53
2024/01/05 07:38:35;;;;;;;1.52;1.23;;;;;;;;;;4994520;28;20444;-51
2024/01/05 07:41:00;;;;;;;2.40;1.02;;;;;;;;;;4979652;28;20037;-51
2024/01/05 07:43:27;;;;;;;1.98;0.75;;;;;;;;;;4997513;28;20058;-51
2024/01/05 07:45:52;;;;;;;2.33;1.08;;;;;;;;;;4989556;28;20499;-51
2024/01/05 07:48:18;;;;;;;1.13;0.52;;;;;;;;;;4986924;28;20057;-50
2024/01/05 07:50:44;;;;;;;1.90;0.57;;;;;;;;;;4975636;28;20027;-46
2024/01/05 07:53:12;;;;;;;6.97;1.58;;;;;;;;;;4996045;28;20030;-48
2024/01/05 07:55:37;;;;;;;5.25;1.48;;;;;;;;;;4992068;28;20031;-47
2024/01/05 07:58:03;;;;;;;3.38;0.88;;;;;;;;;;4992321;28;20607;-50
2024/01/05 08:00:28;;;;;;;2.88;0.57;;;;;;;;;;4993331;28;20054;-46
2024/01/05 08:02:53;;;;;;;3.20;1.00;;;;;;;;;;4991462;28;20029;-46
2024/01/05 08:05:19;;;;;;;1.83;0.73;;;;;;;;;;4987873;28;20120;-44
2024/01/05 08:07:44;;;;;;;3.63;1.50;;;;;;;;;;4989621;28;20034;-48
2024/01/05 08:10:11;;;;;;;2.80;1.35;;;;;;;;;;4990796;28;20038;-46
2024/01/05 08:12:36;;;;;;;2.58;1.42;;;;;;;;;;4983045;28;20069;-46
2024/01/05 08:15:03;;;;;;;4.47;1.13;;;;;;;;;;4997775;28;20046;-47
2024/01/05 08:17:28;;;;;;;2.53;0.88;;;;;;;;;;4990853;28;20088;-48
2024/01/05 08:19:54;;;;;;;3.88;1.35;;;;;;;;;;4987530;28;20039;-48
2024/01/05 08:22:20;;;;;;;2.20;1.42;;;;;;;;;;4988341;28;20030;-46
2024/01/05 08:24:45;;;;;;;1.23;0.60;;;;;;;;;;4978842;28;20611;-47
2024/01/05 08:27:11;;;;;;;1.20;0.50;;;;;;;;;;4986850;28;20019;-48
2024/01/05 08:29:36;;;;;;;2.10;0.63;;;;;;;;;;4981139;28;20042;-47
2024/01/05 08:32:02;;;;;;;1.80;0.50;;;;;;;;;;4993334;28;20076;-50
2024/01/05 08:34:28;;;;;;;1.63;0.57;;;;;;;;;;4987303;28;20062;-49
2024/01/05 08:36:54;;;;;;;1.35;0.45;;;;;;;;;;4995943;28;20077;-45
2024/01/05 08:39:19;;;;;;;4.13;0.73;;;;;;;;;;4994642;28;20073;-46
2024/01/05 08:41:45;;;;;;;2.03;1.23;;;;;;;;;;4994420;28;20396;-51
2024/01/05 08:44:10;;;;;;;2.15;1.42;;;;;;;;;;4990469;28;20118;-45
2024/01/05 08:46:36;;;;;;;2.28;0.70;;;;;;;;;;4985880;28;20073;-50
2024/01/05 08:49:01;;;;;;;1.70;0.70;;;;;;;;;;4990285;28;20042;-47
2024/01/05 08:51:27;;;;;;;0.82;0.38;;;;;;;;;;4980167;28;20063;-51
2024/01/05 08:53:53;;;;;;;0.55;0.40;;;;;;;;;;4990434;28;20050;-50
2024/01/05 08:56:18;;;;;;;1.55;0.77;;;;;;;;;;4988996;28;20080;-47
2024/01/05 08:58:44;;;;;;;0.98;0.32;;;;;;;;;;4986372;28;20125;-51
2024/01/05 09:01:09;;;;;;;1.83;0.68;;;;;;;;;;4981704;28;20027;-50
2024/01/05 09:03:34;;;;;;;1.10;0.82;;;;;;;;;;4992042;28;20103;-48
2024/01/05 09:06:00;;;;;;;2.70;0.85;;;;;;;;;;4984372;28;20023;-47
2024/01/05 09:08:25;;;;;;;1.77;0.43;;;;;;;;;;4983555;28;20109;-50
2024/01/05 09:10:51;;;;;;;1.38;0.93;;;;;;;;;;4987812;28;20118;-49
2024/01/05 09:13:16;;;;;;;1.08;0.50;;;;;;;;;;4985798;28;20481;-46
2024/01/05 09:15:41;;;;;;;2.55;1.65;;;;;;;;;;4985585;28;20071;-49
2024/01/05 09:18:07;;;;;;;3.33;1.48;;;;;;;;;;4985753;28;20058;-46
2024/01/05 09:20:32;;;;;;;3.88;2.30;;;;;;;;;;4991021;28;20026;-52
2024/01/05 09:22:58;;;;;;;4.47;1.88;;;;;;;;;;4978602;28;20022;-45
2024/01/05 09:25:23;;;;;;;4.53;2.78;;;;;;;;;;4990503;28;20401;-48
2024/01/05 09:27:48;;;;;;;2.17;1.80;;;;;;;;;;5001593;28;20027;-49
2024/01/05 09:30:14;;;;;;;2.63;2.08;;;;;;;;;;4984427;28;20401;-48
2024/01/05 09:32:39;;;;;;;3.80;1.67;;;;;;;;;;4998483;28;20067;-47
2024/01/05 09:35:08;;;;;;;2.17;1.50;;;;;;;;;;4985602;28;20047;-47
2024/01/05 09:37:34;;;;;;;;;;;;;;;;;;4984857;28;20113;-47
2024/01/05 09:39:59;;;;;;;1.25;1.05;;;;;;;;;;4992774;28;19952;-46
2024/01/05 09:42:26;;;;;;;1.60;0.90;;;;;;;;;;4989182;28;20069;-48
2024/01/05 09:44:52;;;;;;;3.00;1.83;;;;;;;;;;4981208;28;20090;-46
2024/01/05 09:47:18;;;;;;;2.80;2.53;;;;;;;;;;4990405;28;20030;-47
2024/01/05 09:49:45;;;;;;;3.40;2.00;;;;;;;;;;4991473;28;20089;-47
2024/01/05 09:52:12;;;;;;;5.55;4.40;;;;;;;;;;4978446;28;20053;-49
2024/01/05 09:54:37;;;;;;;9.48;5.95;;;;;;;;;;4988957;28;20031;-47
2024/01/05 09:57:04;;;;;;;12.82;8.93;;;;;;;;;;4992624;28;20149;-53
2024/01/05 09:59:30;;;;;;;8.25;5.85;;;;;;;;;;4987671;28;20038;-51
2024/01/05 10:01:57;;;;;;;5.72;3.55;;;;;;;;;;4988084;28;20038;-48
2024/01/05 10:04:23;;;;;;;6.78;3.90;;;;;;;;;;4987748;28;20638;-51
2024/01/05 10:07:00;;;;;;;4.78;3.83;;;;;;;;;;4992235;28;21563;-46
2024/01/05 10:09:25;;;;;;;2.78;2.10;;;;;;;;;;4985633;28;20475;-48
2024/01/05 10:11:50;;;;;;;3.40;1.70;;;;;;;;;;4994673;28;20034;-47
2024/01/05 10:14:18;;;;;;;2.40;1.35;;;;;;;;;;4984715;28;20050;-50
2024/01/05 10:16:43;;;;;;;3.10;1.92;;;;;;;;;;4981352;28;20035;-50
2024/01/05 10:19:14;;;;;;;2.58;1.73;;;;;;;;;;4984252;28;20088;-47
2024/01/05 10:21:41;;;;;;;2.20;1.58;;;;;;;;;;4988222;28;20062;-49
2024/01/05 10:24:26;;;;;;;2.78;1.63;;;;;;;;;;4996011;28;20041;-47
2024/01/05 10:27:06;;;;;;;5.28;3.63;;;;;;;;;;4982907;28;20069;-48
2024/01/05 10:29:33;;;;;;;11.80;7.18;;;;;;;;;;4982834;28;20042;-50
2024/01/05 10:32:19;;;;;;;11.27;6.72;;;;;;;;;;4985183;28;20034;-49
2024/01/05 10:34:49;;;;;;;12.05;7.20;;;;;;;;;;4981838;28;20038;-48
2024/01/05 10:37:16;;;;;;;10.95;5.95;;;;;;;;;;4990122;28;20026;-49
2024/01/05 10:39:51;;;;;;;14.65;8.75;;;;;;;;;;4999385;28;20129;-48
2024/01/05 10:42:24;;;;;;;6.97;4.28;;;;;;;;;;4990985;28;20022;-46
2024/01/05 10:44:51;;;;;;;5.47;3.47;;;;;;;;;;4991086;28;20098;-49
2024/01/05 10:47:22;;;;;;;4.60;3.10;;;;;;;;;;4985015;28;20380;-49
2024/01/05 10:49:50;;;;;;;4.43;1.65;;;;;;;;;;5001984;28;20035;-48
2024/01/05 10:52:20;;;;;;;4.93;2.08;;;;;;;;;;4988575;28;20059;-45
2024/01/05 10:54:47;;;;;;;6.75;5.22;;;;;;;;;;4984147;28;20656;-50
2024/01/05 10:57:14;;;;;;;6.35;3.13;;;;;;;;;;4982133;28;20481;-49
2024/01/05 10:59:47;;;;;;;6.57;3.17;;;;;;;;;;4971331;28;20039;-49
2024/01/05 11:02:34;;;;;;;4.15;2.42;;;;;;;;;;4970445;28;20038;-52
2024/01/05 11:05:05;;;;;;;;;;;;;;;;;;4972561;28;20489;-50
2024/01/05 11:07:31;;;;;;;4.82;1.80;;;;;;;;;;4978208;28;19910;-48
2024/01/05 11:10:11;;;;;;;1.67;1.38;;;;;;;;;;4970441;28;20029;-47
2024/01/05 11:12:57;;;;;;;1.92;1.48;;;;;;;;;;4978609;28;20037;-49
2024/01/05 11:15:50;;;;;;;3.60;3.30;;;;;;;;;;4987987;28;20039;-49
2024/01/05 11:18:16;;;;;;;5.68;3.30;;;;;;;;;;4988967;28;20485;-49
2024/01/05 11:21:00;;;;;;;6.90;4.32;;;;;;;;;;4990011;28;20038;-52
2024/01/05 11:23:27;;;;;;;5.25;4.57;;;;;;;;;;4989334;28;20026;-48
2024/01/05 11:25:54;;;;;;;4.60;3.50;;;;;;;;;;4991614;28;20401;-47
2024/01/05 11:28:36;;;;;;;5.30;4.45;;;;;;;;;;4989714;28;20493;-45
2024/01/05 11:31:02;;;;;;;6.78;3.25;;;;;;;;;;5002858;28;20026;-50
2024/01/05 11:33:48;;;;;;;3.35;2.72;;;;;;;;;;4991976;28;20026;-51
2024/01/05 11:36:48;;;;;;;2.63;1.75;;;;;;;;;;4994132;28;20022;-48
2024/01/05 11:39:43;;;;;;;3.42;2.95;;;;;;;;;;4986330;28;20133;-50
2024/01/05 11:42:09;;;;;;;3.25;2.10;;;;;;;;;;4988367;28;20038;-47
2024/01/05 11:44:35;;;;;;;4.95;3.08;;;;;;;;;;4991409;28;20381;-47
2024/01/05 11:47:01;;;;;;;3.15;2.17;;;;;;;;;;4991428;28;20051;-46
2024/01/05 11:49:41;;;;;;;4.95;3.25;;;;;;;;;;4980310;28;20037;-49
2024/01/05 11:52:07;;;;;;;6.35;3.33;;;;;;;;;;4990562;28;20041;-47
2024/01/05 11:54:33;;;;;;;8.38;5.75;;;;;;;;;;4987378;28;20493;-51
2024/01/05 11:57:00;;;;;;;6.53;3.72;;;;;;;;;;4988104;28;20030;-46
2024/01/05 11:59:25;;;;;;;9.15;4.43;;;;;;;;;;4990884;28;20038;-45
2024/01/05 12:01:53;;;;;;;12.57;5.82;;;;;;;;;;4988113;28;20026;-49
2024/01/05 12:04:18;;;;;;;11.85;6.53;;;;;;;;;;4984117;28;20035;-47
2024/01/05 12:06:53;;;;;;;6.25;3.67;;;;;;;;;;4990875;28;20514;-47
2024/01/05 12:09:20;;;;;;;6.70;5.65;;;;;;;;;;4984974;28;20030;-49
2024/01/05 12:11:46;;;;;;;7.75;7.03;;;;;;;;;;4984490;28;20092;-44
2024/01/05 12:14:11;;;;;;;7.93;6.30;;;;;;;;;;4985202;28;20031;-47
2024/01/05 12:16:36;;;;;;;7.32;5.88;;;;;;;;;;4988647;28;20073;-49
2024/01/05 12:19:02;;;;;;;7.35;6.15;;;;;;;;;;4992056;28;20042;-47
2024/01/05 12:21:27;;;;;;;7.32;5.05;;;;;;;;;;4991964;28;20027;-46
2024/01/05 12:23:56;;;;;;;4.57;2.90;;;;;;;;;;4988560;28;20033;-46
2024/01/05 12:26:22;;;;;;;4.35;2.83;;;;;;;;;;4994448;28;20539;-46
2024/01/05 12:28:48;;;;;;;4.75;2.95;;;;;;;;;;4990900;28;20102;-46
2024/01/05 12:31:14;;;;;;;7.10;4.00;;;;;;;;;;4987263;28;20031;-50
2024/01/05 12:33:40;;;;;;;8.25;4.13;;;;;;;;;;4989684;28;20041;-45
2024/01/05 12:36:12;;;;;;;6.97;4.00;;;;;;;;;;4981218;28;20027;-47
2024/01/05 12:38:38;;;;;;;5.88;4.90;;;;;;;;;;4984578;28;20030;-48
2024/01/05 12:41:04;;;;;;;4.38;3.55;;;;;;;;;;4992433;28;20393;-46
2024/01/05 12:43:29;;;;;;;6.75;4.75;;;;;;;;;;4989428;28;20080;-48
2024/01/05 12:45:55;;;;;;;5.97;5.25;;;;;;;;;;4984753;28;20034;-49
2024/01/05 12:48:26;;;;;;;8.40;6.20;;;;;;;;;;4990724;28;20046;-48
2024/01/05 12:51:03;;;;;;;10.50;7.22;;;;;;;;;;4990622;28;20062;-49
2024/01/05 12:53:28;;;;;;;8.85;5.72;;;;;;;;;;4986648;28;20035;-47
2024/01/05 12:55:53;;;;;;;8.50;6.53;;;;;;;;;;4994366;28;20030;-47
2024/01/05 12:58:19;;;;;;;9.32;6.20;;;;;;;;;;4994820;28;20045;-46
2024/01/05 13:00:45;;;;;;;10.43;6.40;;;;;;;;;;4966780;28;20054;-47
2024/01/05 13:03:17;;;;;;;7.93;6.18;;;;;;;;;;4981643;28;20025;-48
2024/01/05 13:05:43;;;;;;;4.90;4.03;;;;;;;;;;4984586;28;20027;-46
2024/01/05 13:08:12;;;;;;;4.90;3.85;;;;;;;;;;4992662;28;20056;-48
2024/01/05 13:10:38;;;;;;;6.88;6.28;;;;;;;;;;4989325;28;20091;-45
2024/01/05 13:13:04;;;;;;;7.07;5.38;;;;;;;;;;4992078;28;20452;-46
2024/01/05 13:15:30;;;;;;;9.48;6.30;;;;;;;;;;4992452;28;20022;-48
2024/01/05 13:17:57;;;;;;;6.68;5.47;;;;;;;;;;4986732;28;20038;-47
2024/01/05 13:20:24;;;;;;;6.90;5.07;;;;;;;;;;4987520;28;20053;-49
2024/01/05 13:22:59;;;;;;;6.50;4.80;;;;;;;;;;4994134;28;20038;-50
2024/01/05 13:25:25;;;;;;;5.38;3.85;;;;;;;;;;4984712;28;20042;-48
2024/01/05 13:27:51;;;;;;;5.25;3.72;;;;;;;;;;4988002;28;20622;-50
2024/01/05 13:30:16;;;;;;;4.47;3.20;;;;;;;;;;4982353;28;20043;-46
2024/01/05 13:32:51;;;;;;;4.70;4.30;;;;;;;;;;4997147;28;20034;-47
2024/01/05 13:35:17;;;;;;;;;;;;;;;;;;4990731;28;20030;-49
2024/01/05 13:37:43;;;;;;;3.75;3.35;;;;;;;;;;4990166;28;20428;-49
2024/01/05 13:40:09;;;;;;;3.80;3.50;;;;;;;;;;4987095;28;20034;-46
2024/01/05 13:42:35;;;;;;;4.28;3.15;;;;;;;;;;4990418;28;20022;-48
2024/01/05 13:45:05;;;;;;;7.40;4.22;;;;;;;;;;4990222;28;20342;-49
2024/01/05 13:47:34;;;;;;;5.05;3.30;;;;;;;;;;4993044;28;20094;-47
2024/01/05 13:50:00;;;;;;;;;;;;;;;;;;4992489;28;20035;-50
2024/01/05 13:52:25;;;;;;;5.60;3.67;;;;;;;;;;4988541;28;19931;-49
2024/01/05 13:54:52;;;;;;;6.40;4.40;;;;;;;;;;4984437;28;20650;-44
2024/01/05 13:57:18;;;;;;;5.85;5.07;;;;;;;;;;4996974;28;20022;-46
2024/01/05 13:59:44;;;;;;;7.75;5.65;;;;;;;;;;4987897;28;20043;-51
2024/01/05 14:02:09;;;;;;;6.38;5.28;;;;;;;;;;4987113;28;20034;-46
2024/01/05 14:04:35;;;;;;;6.10;5.50;;;;;;;;;;4983553;28;20807;-47
2024/01/05 14:07:00;;;;;;;7.15;6.45;;;;;;;;;;4991722;28;20026;-46
2024/01/05 14:09:25;;;;;;;7.82;6.88;;;;;;;;;;4989231;28;20061;-48
2024/01/05 14:11:51;;;;;;;7.03;6.25;;;;;;;;;;4990036;28;20023;-48
2024/01/05 14:14:17;;;;;;;10.90;9.90;;;;;;;;;;4991474;28;20677;-46
2024/01/05 14:16:42;;;;;;;14.18;12.68;;;;;;;;;;4986190;28;20413;-48
2024/01/05 14:19:08;;;;;;;12.45;8.30;;;;;;;;;;4986456;28;20066;-48
2024/01/05 14:21:34;;;;;;;9.00;7.25;;;;;;;;;;4989850;28;20101;-49
2024/01/05 14:24:00;;;;;;;9.98;8.73;;;;;;;;;;4983922;28;20034;-49
2024/01/05 14:26:27;;;;;;;10.25;9.18;;;;;;;;;;4988712;28;20112;-46
2024/01/05 14:28:52;;;;;;;10.32;8.98;;;;;;;;;;4991113;28;20426;-49
2024/01/05 14:31:27;;;;;;;9.45;8.18;;;;;;;;;;4975341;28;20023;-48
2024/01/05 14:33:56;;;;;;;10.30;6.13;;;;;;;;;;4989529;28;20126;-45
2024/01/05 14:36:23;;;;;;;8.60;6.57;;;;;;;;;;4995906;28;20022;-45
2024/01/05 14:38:49;;;;;;;6.15;5.25;;;;;;;;;;4988164;28;20041;-51
2024/01/05 14:41:15;;;;;;;7.15;6.07;;;;;;;;;;4992311;28;20053;-46